sensor_id;sensor_type;location;lat;lon;timestamp;temperature;humidity
19110;DHT22;9687;50.836;12.060;2023-01-30T00:02:04;1.10;79.50
19110;DHT22;9687;50.836;12.060;2023-01-30T00:04:33;1.10;80.20
19110;DHT22;9687;50.836;12.060;2023-01-30T00:07:01;1.10;80.30
19110;DHT22;9687;50.836;12.060;2023-01-30T00:09:28;1.10;79.80
19110;DHT22;9687;50.836;12.060;2023-01-30T00:11:56;1.10;80.40
19110;DHT22;9687;50.836;12.060;2023-01-30T00:14:25;1.10;80.40
19110;DHT22;9687;50.836;12.060;2023-01-30T00:16:54;1.10;79.80
19110;DHT22;9687;50.836;12.060;2023-01-30T00:19:25;1.10;80.00
19110;DHT22;9687;50.836;12.060;2023-01-30T00:21:56;1.00;80.20
19110;DHT22;9687;50.836;12.060;2023-01-30T00:24:25;1.10;80.90
19110;DHT22;9687;50.836;12.060;2023-01-30T00:26:52;1.10;81.10
19110;DHT22;9687;50.836;12.060;2023-01-30T00:29:20;2.70;82.80
19110;DHT22;9687;50.836;12.060;2023-01-30T00:31:47;1.10;80.70
19110;DHT22;9687;50.836;12.060;2023-01-30T00:34:15;1.10;81.40
19110;DHT22;9687;50.836;12.060;2023-01-30T00:36:42;1.00;81.10
19110;DHT22;9687;50.836;12.060;2023-01-30T00:39:11;1.00;81.80
19110;DHT22;9687;50.836;12.060;2023-01-30T00:41:38;1.00;81.50
19110;DHT22;9687;50.836;12.060;2023-01-30T00:44:24;1.10;81.70
19110;DHT22;9687;50.836;12.060;2023-01-30T00:47:09;1.10;81.90
19110;DHT22;9687;50.836;12.060;2023-01-30T00:49:36;1.10;82.00
19110;DHT22;9687;50.836;12.060;2023-01-30T00:52:04;1.10;82.60
19110;DHT22;9687;50.836;12.060;2023-01-30T00:54:33;1.10;82.80
19110;DHT22;9687;50.836;12.060;2023-01-30T00:57:01;1.10;83.10
19110;DHT22;9687;50.836;12.060;2023-01-30T00:59:28;1.10;82.70
19110;DHT22;9687;50.836;12.060;2023-01-30T01:01:56;1.10;83.70
19110;DHT22;9687;50.836;12.060;2023-01-30T01:04:26;1.10;83.40
19110;DHT22;9687;50.836;12.060;2023-01-30T01:06:54;1.10;83.40
19110;DHT22;9687;50.836;12.060;2023-01-30T01:09:21;1.10;84.00
19110;DHT22;9687;50.836;12.060;2023-01-30T01:11:50;1.10;84.00
19110;DHT22;9687;50.836;12.060;2023-01-30T01:14:18;1.10;84.90
19110;DHT22;9687;50.836;12.060;2023-01-30T01:16:46;1.20;84.60
19110;DHT22;9687;50.836;12.060;2023-01-30T01:19:13;1.20;85.30
19110;DHT22;9687;50.836;12.060;2023-01-30T01:21:40;1.20;85.30
19110;DHT22;9687;50.836;12.060;2023-01-30T01:24:10;1.20;85.30
19110;DHT22;9687;50.836;12.060;2023-01-30T01:26:39;1.20;86.00
19110;DHT22;9687;50.836;12.060;2023-01-30T01:29:09;1.20;86.30
19110;DHT22;9687;50.836;12.060;2023-01-30T01:31:38;1.20;85.70
19110;DHT22;9687;50.836;12.060;2023-01-30T01:34:06;1.20;86.00
19110;DHT22;9687;50.836;12.060;2023-01-30T01:36:34;1.20;86.10
19110;DHT22;9687;50.836;12.060;2023-01-30T01:39:01;1.20;86.10
19110;DHT22;9687;50.836;12.060;2023-01-30T01:41:29;1.20;86.90
19110;DHT22;9687;50.836;12.060;2023-01-30T01:43:58;1.20;86.20
19110;DHT22;9687;50.836;12.060;2023-01-30T01:46:31;1.20;86.10
19110;DHT22;9687;50.836;12.060;2023-01-30T01:48:59;1.20;86.80
19110;DHT22;9687;50.836;12.060;2023-01-30T01:51:28;1.30;86.90
19110;DHT22;9687;50.836;12.060;2023-01-30T01:53:59;1.20;87.00
19110;DHT22;9687;50.836;12.060;2023-01-30T01:56:29;1.30;86.50
19110;DHT22;9687;50.836;12.060;2023-01-30T01:58:59;1.30;86.60
19110;DHT22;9687;50.836;12.060;2023-01-30T02:01:30;1.30;87.30
19110;DHT22;9687;50.836;12.060;2023-01-30T02:03:59;1.30;87.70
19110;DHT22;9687;50.836;12.060;2023-01-30T02:06:29;1.30;87.70
19110;DHT22;9687;50.836;12.060;2023-01-30T02:08:57;1.30;87.90
19110;DHT22;9687;50.836;12.060;2023-01-30T02:11:26;1.30;88.30
19110;DHT22;9687;50.836;12.060;2023-01-30T02:13:55;1.30;88.40
19110;DHT22;9687;50.836;12.060;2023-01-30T02:16:24;1.30;88.60
19110;DHT22;9687;50.836;12.060;2023-01-30T02:18:55;1.30;88.90
19110;DHT22;9687;50.836;12.060;2023-01-30T02:21:30;1.30;88.30
19110;DHT22;9687;50.836;12.060;2023-01-30T02:24:05;1.30;88.30
19110;DHT22;9687;50.836;12.060;2023-01-30T02:29:32;1.30;88.50
19110;DHT22;9687;50.836;12.060;2023-01-30T02:32:08;1.40;89.20
19110;DHT22;9687;50.836;12.060;2023-01-30T02:34:41;1.40;88.50
19110;DHT22;9687;50.836;12.060;2023-01-30T02:37:15;1.40;89.00
19110;DHT22;9687;50.836;12.060;2023-01-30T02:39:47;1.40;88.90
19110;DHT22;9687;50.836;12.060;2023-01-30T02:42:19;1.50;88.90
19110;DHT22;9687;50.836;12.060;2023-01-30T02:44:54;1.50;88.80
19110;DHT22;9687;50.836;12.060;2023-01-30T02:47:24;1.50;88.10
19110;DHT22;9687;50.836;12.060;2023-01-30T02:49:56;1.50;88.80
19110;DHT22;9687;50.836;12.060;2023-01-30T02:52:26;1.50;88.90
19110;DHT22;9687;50.836;12.060;2023-01-30T02:54:55;1.50;88.90
19110;DHT22;9687;50.836;12.060;2023-01-30T02:57:23;1.50;88.90
19110;DHT22;9687;50.836;12.060;2023-01-30T02:59:51;1.60;88.50
19110;DHT22;9687;50.836;12.060;2023-01-30T03:02:37;1.60;89.20
19110;DHT22;9687;50.836;12.060;2023-01-30T03:05:17;1.60;89.50
19110;DHT22;9687;50.836;12.060;2023-01-30T03:07:47;1.60;89.60
19110;DHT22;9687;50.836;12.060;2023-01-30T03:10:16;1.60;89.10
19110;DHT22;9687;50.836;12.060;2023-01-30T03:12:47;1.60;89.20
19110;DHT22;9687;50.836;12.060;2023-01-30T03:15:20;1.60;89.80
19110;DHT22;9687;50.836;12.060;2023-01-30T03:17:51;1.60;89.60
19110;DHT22;9687;50.836;12.060;2023-01-30T03:20:18;1.60;89.80
19110;DHT22;9687;50.836;12.060;2023-01-30T03:22:46;1.60;89.80
19110;DHT22;9687;50.836;12.060;2023-01-30T03:25:16;1.60;90.20
19110;DHT22;9687;50.836;12.060;2023-01-30T03:27:44;1.60;90.20
19110;DHT22;9687;50.836;12.060;2023-01-30T03:30:12;1.60;90.20
19110;DHT22;9687;50.836;12.060;2023-01-30T03:32:39;1.60;90.30
19110;DHT22;9687;50.836;12.060;2023-01-30T03:35:08;1.60;90.20
19110;DHT22;9687;50.836;12.060;2023-01-30T03:37:36;1.60;90.20
19110;DHT22;9687;50.836;12.060;2023-01-30T03:40:04;1.60;90.20
19110;DHT22;9687;50.836;12.060;2023-01-30T03:42:32;1.70;90.60
19110;DHT22;9687;50.836;12.060;2023-01-30T03:44:59;1.70;90.50
19110;DHT22;9687;50.836;12.060;2023-01-30T03:47:26;1.70;90.50
19110;DHT22;9687;50.836;12.060;2023-01-30T03:49:53;1.70;90.60
19110;DHT22;9687;50.836;12.060;2023-01-30T03:52:22;1.70;91.00
19110;DHT22;9687;50.836;12.060;2023-01-30T03:54:50;1.70;90.70
19110;DHT22;9687;50.836;12.060;2023-01-30T03:57:17;1.70;90.90
19110;DHT22;9687;50.836;12.060;2023-01-30T03:59:44;1.70;90.50
19110;DHT22;9687;50.836;12.060;2023-01-30T04:02:12;1.80;90.60
19110;DHT22;9687;50.836;12.060;2023-01-30T04:04:39;1.80;90.90
19110;DHT22;9687;50.836;12.060;2023-01-30T04:07:07;1.80;90.90
19110;DHT22;9687;50.836;12.060;2023-01-30T04:09:35;1.80;90.70
19110;DHT22;9687;50.836;12.060;2023-01-30T04:12:03;1.80;90.70
19110;DHT22;9687;50.836;12.060;2023-01-30T04:14:30;1.80;91.10
19110;DHT22;9687;50.836;12.060;2023-01-30T04:16:57;1.80;91.10
19110;DHT22;9687;50.836;12.060;2023-01-30T04:19:25;1.90;90.90
19110;DHT22;9687;50.836;12.060;2023-01-30T04:21:52;1.80;90.90
19110;DHT22;9687;50.836;12.060;2023-01-30T04:24:19;1.80;91.20
19110;DHT22;9687;50.836;12.060;2023-01-30T04:26:48;1.90;91.20
19110;DHT22;9687;50.836;12.060;2023-01-30T04:29:15;1.90;91.20
19110;DHT22;9687;50.836;12.060;2023-01-30T04:31:42;1.90;91.00
19110;DHT22;9687;50.836;12.060;2023-01-30T04:34:10;2.00;91.00
19110;DHT22;9687;50.836;12.060;2023-01-30T04:36:37;2.00;91.20
19110;DHT22;9687;50.836;12.060;2023-01-30T04:39:04;2.00;90.90
19110;DHT22;9687;50.836;12.060;2023-01-30T04:41:31;2.20;91.00
19110;DHT22;9687;50.836;12.060;2023-01-30T04:44:01;2.00;91.20
19110;DHT22;9687;50.836;12.060;2023-01-30T04:46:28;2.00;91.50
19110;DHT22;9687;50.836;12.060;2023-01-30T04:48:55;2.00;91.20
19110;DHT22;9687;50.836;12.060;2023-01-30T04:51:23;2.00;90.90
19110;DHT22;9687;50.836;12.060;2023-01-30T04:53:50;2.10;91.20
19110;DHT22;9687;50.836;12.060;2023-01-30T04:56:18;2.10;91.30
19110;DHT22;9687;50.836;12.060;2023-01-30T04:58:45;2.10;91.40
19110;DHT22;9687;50.836;12.060;2023-01-30T05:01:18;2.10;91.20
19110;DHT22;9687;50.836;12.060;2023-01-30T05:03:48;2.10;91.50
19110;DHT22;9687;50.836;12.060;2023-01-30T05:06:15;2.10;91.60
19110;DHT22;9687;50.836;12.060;2023-01-30T05:08:42;2.10;91.30
19110;DHT22;9687;50.836;12.060;2023-01-30T05:11:10;2.10;91.40
19110;DHT22;9687;50.836;12.060;2023-01-30T05:13:37;2.10;91.50
19110;DHT22;9687;50.836;12.060;2023-01-30T05:16:04;2.20;91.80
19110;DHT22;9687;50.836;12.060;2023-01-30T05:21:07;2.20;91.60
19110;DHT22;9687;50.836;12.060;2023-01-30T05:23:34;2.20;91.90
19110;DHT22;9687;50.836;12.060;2023-01-30T05:26:02;2.20;91.90
19110;DHT22;9687;50.836;12.060;2023-01-30T05:28:29;2.20;91.60
19110;DHT22;9687;50.836;12.060;2023-01-30T05:30:59;2.10;91.90
19110;DHT22;9687;50.836;12.060;2023-01-30T05:33:27;2.20;91.80
19110;DHT22;9687;50.836;12.060;2023-01-30T05:35:54;2.20;91.80
19110;DHT22;9687;50.836;12.060;2023-01-30T05:38:23;2.30;92.00
19110;DHT22;9687;50.836;12.060;2023-01-30T05:40:56;2.30;92.70
19110;DHT22;9687;50.836;12.060;2023-01-30T05:43:24;2.30;92.50
19110;DHT22;9687;50.836;12.060;2023-01-30T05:45:51;2.30;92.50
19110;DHT22;9687;50.836;12.060;2023-01-30T05:48:19;2.30;92.50
19110;DHT22;9687;50.836;12.060;2023-01-30T05:50:46;2.30;92.50
19110;DHT22;9687;50.836;12.060;2023-01-30T05:53:13;2.30;92.30
19110;DHT22;9687;50.836;12.060;2023-01-30T05:55:42;2.30;92.40
19110;DHT22;9687;50.836;12.060;2023-01-30T05:58:10;2.40;92.80
19110;DHT22;9687;50.836;12.060;2023-01-30T06:00:37;2.30;92.70
19110;DHT22;9687;50.836;12.060;2023-01-30T06:03:04;2.40;92.80
19110;DHT22;9687;50.836;12.060;2023-01-30T06:05:32;2.40;93.10
19110;DHT22;9687;50.836;12.060;2023-01-30T06:07:59;2.40;93.00
19110;DHT22;9687;50.836;12.060;2023-01-30T06:10:26;2.40;93.30
19110;DHT22;9687;50.836;12.060;2023-01-30T06:12:55;2.40;93.40
19110;DHT22;9687;50.836;12.060;2023-01-30T06:15:24;2.40;93.40
19110;DHT22;9687;50.836;12.060;2023-01-30T06:17:53;2.40;93.80
19110;DHT22;9687;50.836;12.060;2023-01-30T06:20:20;2.40;93.90
19110;DHT22;9687;50.836;12.060;2023-01-30T06:22:48;2.40;93.90
19110;DHT22;9687;50.836;12.060;2023-01-30T06:25:15;2.50;94.00
19110;DHT22;9687;50.836;12.060;2023-01-30T06:27:44;2.50;94.10
19110;DHT22;9687;50.836;12.060;2023-01-30T06:30:14;2.50;94.00
19110;DHT22;9687;50.836;12.060;2023-01-30T06:32:41;2.50;94.10
19110;DHT22;9687;50.836;12.060;2023-01-30T06:35:09;2.50;94.20
19110;DHT22;9687;50.836;12.060;2023-01-30T06:37:36;2.60;94.40
19110;DHT22;9687;50.836;12.060;2023-01-30T06:40:04;2.60;94.40
19110;DHT22;9687;50.836;12.060;2023-01-30T06:42:31;2.60;94.40
19110;DHT22;9687;50.836;12.060;2023-01-30T06:44:59;2.60;94.70
19110;DHT22;9687;50.836;12.060;2023-01-30T06:47:27;2.70;94.50
19110;DHT22;9687;50.836;12.060;2023-01-30T06:49:54;2.70;94.40
19110;DHT22;9687;50.836;12.060;2023-01-30T06:52:21;2.70;94.40
19110;DHT22;9687;50.836;12.060;2023-01-30T06:54:49;2.70;94.80
19110;DHT22;9687;50.836;12.060;2023-01-30T06:57:17;2.70;95.00
19110;DHT22;9687;50.836;12.060;2023-01-30T06:59:44;2.70;95.00
19110;DHT22;9687;50.836;12.060;2023-01-30T07:02:11;2.80;95.10
19110;DHT22;9687;50.836;12.060;2023-01-30T07:04:41;2.80;94.90
19110;DHT22;9687;50.836;12.060;2023-01-30T07:07:08;2.80;94.80
19110;DHT22;9687;50.836;12.060;2023-01-30T07:09:35;2.80;95.10
19110;DHT22;9687;50.836;12.060;2023-01-30T07:12:03;2.80;95.10
19110;DHT22;9687;50.836;12.060;2023-01-30T07:14:30;2.90;95.00
19110;DHT22;9687;50.836;12.060;2023-01-30T07:16:57;2.90;95.20
19110;DHT22;9687;50.836;12.060;2023-01-30T07:19:24;2.90;94.90
19110;DHT22;9687;50.836;12.060;2023-01-30T07:21:53;2.90;95.20
19110;DHT22;9687;50.836;12.060;2023-01-30T07:24:21;2.90;95.20
19110;DHT22;9687;50.836;12.060;2023-01-30T07:26:48;2.90;95.00
19110;DHT22;9687;50.836;12.060;2023-01-30T07:29:15;2.90;95.00
19110;DHT22;9687;50.836;12.060;2023-01-30T07:31:43;3.00;95.10
19110;DHT22;9687;50.836;12.060;2023-01-30T07:34:10;3.10;95.40
19110;DHT22;9687;50.836;12.060;2023-01-30T07:36:38;3.00;95.40
19110;DHT22;9687;50.836;12.060;2023-01-30T07:39:07;3.00;95.30
19110;DHT22;9687;50.836;12.060;2023-01-30T07:41:35;3.10;95.10
19110;DHT22;9687;50.836;12.060;2023-01-30T07:44:02;3.10;95.40
19110;DHT22;9687;50.836;12.060;2023-01-30T07:46:29;3.00;95.40
19110;DHT22;9687;50.836;12.060;2023-01-30T07:49:00;3.10;95.00
19110;DHT22;9687;50.836;12.060;2023-01-30T07:51:27;3.20;95.40
19110;DHT22;9687;50.836;12.060;2023-01-30T07:53:54;3.10;95.60
19110;DHT22;9687;50.836;12.060;2023-01-30T07:56:26;3.10;94.90
19110;DHT22;9687;50.836;12.060;2023-01-30T07:58:55;3.20;95.00
19110;DHT22;9687;50.836;12.060;2023-01-30T08:01:22;3.20;95.10
19110;DHT22;9687;50.836;12.060;2023-01-30T08:03:49;3.20;95.10
19110;DHT22;9687;50.836;12.060;2023-01-30T08:06:17;3.20;95.50
19110;DHT22;9687;50.836;12.060;2023-01-30T08:08:44;3.20;95.10
19110;DHT22;9687;50.836;12.060;2023-01-30T08:11:12;3.20;95.40
19110;DHT22;9687;50.836;12.060;2023-01-30T08:13:40;3.20;95.20
19110;DHT22;9687;50.836;12.060;2023-01-30T08:16:08;3.20;95.40
19110;DHT22;9687;50.836;12.060;2023-01-30T08:18:36;3.20;95.50
19110;DHT22;9687;50.836;12.060;2023-01-30T08:21:05;3.30;95.80
19110;DHT22;9687;50.836;12.060;2023-01-30T08:23:33;3.30;95.80
19110;DHT22;9687;50.836;12.060;2023-01-30T08:26:01;3.30;95.90
19110;DHT22;9687;50.836;12.060;2023-01-30T08:28:29;3.30;95.90
19110;DHT22;9687;50.836;12.060;2023-01-30T08:30:58;3.30;95.90
19110;DHT22;9687;50.836;12.060;2023-01-30T08:33:26;3.30;95.80
19110;DHT22;9687;50.836;12.060;2023-01-30T08:35:55;3.30;95.80
19110;DHT22;9687;50.836;12.060;2023-01-30T08:38:24;3.30;95.70
19110;DHT22;9687;50.836;12.060;2023-01-30T08:40:52;3.40;95.70
19110;DHT22;9687;50.836;12.060;2023-01-30T08:43:40;3.40;96.10
19110;DHT22;9687;50.836;12.060;2023-01-30T08:46:26;3.40;95.80
19110;DHT22;9687;50.836;12.060;2023-01-30T08:48:54;3.40;95.80
19110;DHT22;9687;50.836;12.060;2023-01-30T08:51:21;3.40;96.10
19110;DHT22;9687;50.836;12.060;2023-01-30T08:53:49;3.40;96.00
19110;DHT22;9687;50.836;12.060;2023-01-30T08:56:16;3.40;96.00
19110;DHT22;9687;50.836;12.060;2023-01-30T08:58:44;3.50;96.00
19110;DHT22;9687;50.836;12.060;2023-01-30T09:01:14;3.50;95.90
19110;DHT22;9687;50.836;12.060;2023-01-30T09:03:43;3.50;95.90
19110;DHT22;9687;50.836;12.060;2023-01-30T09:06:10;3.50;95.60
19110;DHT22;9687;50.836;12.060;2023-01-30T09:08:37;3.50;95.90
19110;DHT22;9687;50.836;12.060;2023-01-30T09:11:05;3.50;95.80
19110;DHT22;9687;50.836;12.060;2023-01-30T09:13:33;3.60;95.50
19110;DHT22;9687;50.836;12.060;2023-01-30T09:16:00;3.60;95.50
19110;DHT22;9687;50.836;12.060;2023-01-30T09:18:31;3.60;95.40
19110;DHT22;9687;50.836;12.060;2023-01-30T09:21:03;3.60;95.70
19110;DHT22;9687;50.836;12.060;2023-01-30T09:23:31;3.60;95.60
19110;DHT22;9687;50.836;12.060;2023-01-30T09:25:59;3.60;95.70
19110;DHT22;9687;50.836;12.060;2023-01-30T09:28:27;3.80;95.60
19110;DHT22;9687;50.836;12.060;2023-01-30T09:30:56;3.70;95.60
19110;DHT22;9687;50.836;12.060;2023-01-30T09:33:24;3.70;95.70
19110;DHT22;9687;50.836;12.060;2023-01-30T09:35:53;3.70;95.90
19110;DHT22;9687;50.836;12.060;2023-01-30T09:38:22;3.70;96.20
19110;DHT22;9687;50.836;12.060;2023-01-30T09:40:52;3.80;96.30
19110;DHT22;9687;50.836;12.060;2023-01-30T09:43:27;3.80;96.00
19110;DHT22;9687;50.836;12.060;2023-01-30T09:46:06;3.80;96.20
19110;DHT22;9687;50.836;12.060;2023-01-30T09:48:38;3.90;96.20
19110;DHT22;9687;50.836;12.060;2023-01-30T09:54:24;3.90;96.20
19110;DHT22;9687;50.836;12.060;2023-01-30T09:56:55;4.00;96.00
19110;DHT22;9687;50.836;12.060;2023-01-30T09:59:27;4.00;96.00
19110;DHT22;9687;50.836;12.060;2023-01-30T10:01:59;4.00;96.00
19110;DHT22;9687;50.836;12.060;2023-01-30T10:04:30;4.00;96.00
19110;DHT22;9687;50.836;12.060;2023-01-30T10:07:02;4.00;96.00
19110;DHT22;9687;50.836;12.060;2023-01-30T10:09:35;4.10;96.00
19110;DHT22;9687;50.836;12.060;2023-01-30T10:12:09;4.10;96.00
19110;DHT22;9687;50.836;12.060;2023-01-30T10:14:46;4.00;96.20
19110;DHT22;9687;50.836;12.060;2023-01-30T10:22:59;4.10;95.90
19110;DHT22;9687;50.836;12.060;2023-01-30T10:25:31;4.10;95.90
19110;DHT22;9687;50.836;12.060;2023-01-30T10:28:00;4.10;96.00
19110;DHT22;9687;50.836;12.060;2023-01-30T10:30:29;4.10;96.20
19110;DHT22;9687;50.836;12.060;2023-01-30T10:32:57;4.10;96.00
19110;DHT22;9687;50.836;12.060;2023-01-30T10:35:28;4.20;96.00
19110;DHT22;9687;50.836;12.060;2023-01-30T10:37:57;4.20;96.20
19110;DHT22;9687;50.836;12.060;2023-01-30T10:40:27;4.20;96.50
19110;DHT22;9687;50.836;12.060;2023-01-30T10:42:58;4.30;96.40
19110;DHT22;9687;50.836;12.060;2023-01-30T10:45:31;4.20;96.40
19110;DHT22;9687;50.836;12.060;2023-01-30T10:48:02;4.30;96.80
19110;DHT22;9687;50.836;12.060;2023-01-30T10:50:41;4.30;96.70
19110;DHT22;9687;50.836;12.060;2023-01-30T10:53:12;4.30;96.80
19110;DHT22;9687;50.836;12.060;2023-01-30T10:55:43;4.30;96.90
19110;DHT22;9687;50.836;12.060;2023-01-30T10:58:16;4.30;96.90
19110;DHT22;9687;50.836;12.060;2023-01-30T11:00:49;4.40;97.10
19110;DHT22;9687;50.836;12.060;2023-01-30T11:03:23;4.40;97.10
19110;DHT22;9687;50.836;12.060;2023-01-30T11:05:53;4.40;97.00
19110;DHT22;9687;50.836;12.060;2023-01-30T11:08:21;4.40;97.40
19110;DHT22;9687;50.836;12.060;2023-01-30T11:10:49;4.50;97.20
19110;DHT22;9687;50.836;12.060;2023-01-30T11:13:18;4.50;97.30
19110;DHT22;9687;50.836;12.060;2023-01-30T11:15:47;4.50;97.50
19110;DHT22;9687;50.836;12.060;2023-01-30T11:18:16;4.60;97.60
19110;DHT22;9687;50.836;12.060;2023-01-30T11:20:44;4.70;97.40
19110;DHT22;9687;50.836;12.060;2023-01-30T11:23:22;4.70;97.40
19110;DHT22;9687;50.836;12.060;2023-01-30T11:25:52;4.80;97.60
19110;DHT22;9687;50.836;12.060;2023-01-30T11:28:21;4.90;97.90
19110;DHT22;9687;50.836;12.060;2023-01-30T11:30:51;5.00;97.50
19110;DHT22;9687;50.836;12.060;2023-01-30T11:33:22;5.10;97.10
19110;DHT22;9687;50.836;12.060;2023-01-30T11:35:52;5.10;96.90
19110;DHT22;9687;50.836;12.060;2023-01-30T11:38:22;5.10;97.50
19110;DHT22;9687;50.836;12.060;2023-01-30T11:40:49;5.10;96.60
19110;DHT22;9687;50.836;12.060;2023-01-30T11:43:28;5.10;96.50
19110;DHT22;9687;50.836;12.060;2023-01-30T11:45:55;5.10;96.40
19110;DHT22;9687;50.836;12.060;2023-01-30T11:48:25;5.10;96.40
19110;DHT22;9687;50.836;12.060;2023-01-30T11:50:54;5.00;96.40
19110;DHT22;9687;50.836;12.060;2023-01-30T11:53:26;5.00;96.40
19110;DHT22;9687;50.836;12.060;2023-01-30T11:55:56;5.00;96.40
19110;DHT22;9687;50.836;12.060;2023-01-30T11:58:29;5.00;96.70
19110;DHT22;9687;50.836;12.060;2023-01-30T12:00:58;5.00;96.50
19110;DHT22;9687;50.836;12.060;2023-01-30T12:03:25;4.90;96.50
19110;DHT22;9687;50.836;12.060;2023-01-30T12:05:54;4.90;96.50
19110;DHT22;9687;50.836;12.060;2023-01-30T12:08:24;4.90;96.80
19110;DHT22;9687;50.836;12.060;2023-01-30T12:10:53;4.90;96.60
19110;DHT22;9687;50.836;12.060;2023-01-30T12:13:22;4.90;97.00
19110;DHT22;9687;50.836;12.060;2023-01-30T12:15:53;4.90;96.80
19110;DHT22;9687;50.836;12.060;2023-01-30T12:18:25;5.00;97.00
19110;DHT22;9687;50.836;12.060;2023-01-30T12:20:57;5.10;97.00
19110;DHT22;9687;50.836;12.060;2023-01-30T12:23:26;5.10;97.00
19110;DHT22;9687;50.836;12.060;2023-01-30T12:25:58;5.10;97.00
19110;DHT22;9687;50.836;12.060;2023-01-30T12:28:29;5.20;97.00
19110;DHT22;9687;50.836;12.060;2023-01-30T12:31:02;5.20;97.20
19110;DHT22;9687;50.836;12.060;2023-01-30T12:33:32;5.20;96.80
19110;DHT22;9687;50.836;12.060;2023-01-30T12:36:04;5.20;96.80
19110;DHT22;9687;50.836;12.060;2023-01-30T12:38:39;5.20;96.80
19110;DHT22;9687;50.836;12.060;2023-01-30T12:41:12;5.20;97.10
19110;DHT22;9687;50.836;12.060;2023-01-30T12:43:46;5.30;97.20
19110;DHT22;9687;50.836;12.060;2023-01-30T12:46:21;5.40;96.90
19110;DHT22;9687;50.836;12.060;2023-01-30T12:48:58;5.40;97.10
19110;DHT22;9687;50.836;12.060;2023-01-30T12:54:16;5.50;96.80
19110;DHT22;9687;50.836;12.060;2023-01-30T12:56:56;5.50;96.70
19110;DHT22;9687;50.836;12.060;2023-01-30T12:59:25;5.50;96.60
19110;DHT22;9687;50.836;12.060;2023-01-30T13:02:08;5.60;96.30
19110;DHT22;9687;50.836;12.060;2023-01-30T13:04:44;5.60;96.30
19110;DHT22;9687;50.836;12.060;2023-01-30T13:07:15;5.60;96.60
19110;DHT22;9687;50.836;12.060;2023-01-30T13:09:48;5.70;96.10
19110;DHT22;9687;50.836;12.060;2023-01-30T13:12:19;5.70;96.40
19110;DHT22;9687;50.836;12.060;2023-01-30T13:14:51;5.70;96.40
19110;DHT22;9687;50.836;12.060;2023-01-30T13:17:29;5.80;96.30
19110;DHT22;9687;50.836;12.060;2023-01-30T13:20:02;5.80;96.20
19110;DHT22;9687;50.836;12.060;2023-01-30T13:22:34;5.80;96.10
19110;DHT22;9687;50.836;12.060;2023-01-30T13:25:05;5.80;96.00
19110;DHT22;9687;50.836;12.060;2023-01-30T13:27:39;5.90;95.60
19110;DHT22;9687;50.836;12.060;2023-01-30T13:30:11;5.90;95.90
19110;DHT22;9687;50.836;12.060;2023-01-30T13:32:42;5.90;95.70
19110;DHT22;9687;50.836;12.060;2023-01-30T13:35:13;5.90;95.30
19110;DHT22;9687;50.836;12.060;2023-01-30T13:37:42;5.90;95.50
19110;DHT22;9687;50.836;12.060;2023-01-30T13:40:12;5.90;95.20
19110;DHT22;9687;50.836;12.060;2023-01-30T13:42:43;5.80;95.20
19110;DHT22;9687;50.836;12.060;2023-01-30T13:45:15;5.80;95.50
19110;DHT22;9687;50.836;12.060;2023-01-30T13:47:47;5.80;95.50
19110;DHT22;9687;50.836;12.060;2023-01-30T13:50:21;5.70;95.50
19110;DHT22;9687;50.836;12.060;2023-01-30T13:52:51;5.70;95.30
19110;DHT22;9687;50.836;12.060;2023-01-30T13:55:23;5.70;95.60
19110;DHT22;9687;50.836;12.060;2023-01-30T13:57:52;5.60;95.60
19110;DHT22;9687;50.836;12.060;2023-01-30T14:00:26;5.60;95.70
19110;DHT22;9687;50.836;12.060;2023-01-30T14:08:28;5.60;95.80
19110;DHT22;9687;50.836;12.060;2023-01-30T14:10:56;5.60;95.80
19110;DHT22;9687;50.836;12.060;2023-01-30T14:13:25;5.60;95.40
19110;DHT22;9687;50.836;12.060;2023-01-30T14:15:53;5.60;95.70
19110;DHT22;9687;50.836;12.060;2023-01-30T14:18:22;5.60;95.70
19110;DHT22;9687;50.836;12.060;2023-01-30T14:20:50;5.60;95.40
19110;DHT22;9687;50.836;12.060;2023-01-30T14:23:19;5.50;95.40
19110;DHT22;9687;50.836;12.060;2023-01-30T14:25:50;5.50;95.60
19110;DHT22;9687;50.836;12.060;2023-01-30T14:37:26;5.50;95.50
19110;DHT22;9687;50.836;12.060;2023-01-30T14:39:54;5.50;95.50
19110;DHT22;9687;50.836;12.060;2023-01-30T14:42:24;5.60;95.60
19110;DHT22;9687;50.836;12.060;2023-01-30T14:44:59;5.60;95.70
19110;DHT22;9687;50.836;12.060;2023-01-30T14:47:28;5.60;95.70
19110;DHT22;9687;50.836;12.060;2023-01-30T14:49:56;5.60;95.60
19110;DHT22;9687;50.836;12.060;2023-01-30T14:52:30;5.60;95.60
19110;DHT22;9687;50.836;12.060;2023-01-30T14:55:01;5.70;95.30
19110;DHT22;9687;50.836;12.060;2023-01-30T14:57:32;5.70;95.50
19110;DHT22;9687;50.836;12.060;2023-01-30T15:00:01;5.80;95.40
19110;DHT22;9687;50.836;12.060;2023-01-30T15:02:30;5.70;95.20
19110;DHT22;9687;50.836;12.060;2023-01-30T15:05:01;5.70;95.20
19110;DHT22;9687;50.836;12.060;2023-01-30T15:07:34;5.70;95.20
19110;DHT22;9687;50.836;12.060;2023-01-30T15:10:04;5.70;94.80
19110;DHT22;9687;50.836;12.060;2023-01-30T15:12:40;5.80;95.10
19110;DHT22;9687;50.836;12.060;2023-01-30T15:15:20;5.70;94.70
19110;DHT22;9687;50.836;12.060;2023-01-30T15:17:54;5.70;95.00
19110;DHT22;9687;50.836;12.060;2023-01-30T15:20:24;5.60;94.50
19110;DHT22;9687;50.836;12.060;2023-01-30T15:23:12;5.60;94.50
19110;DHT22;9687;50.836;12.060;2023-01-30T15:26:00;5.60;94.80
19110;DHT22;9687;50.836;12.060;2023-01-30T15:28:34;5.60;94.50
19110;DHT22;9687;50.836;12.060;2023-01-30T15:31:07;5.60;94.80
19110;DHT22;9687;50.836;12.060;2023-01-30T15:33:41;5.60;94.40
19110;DHT22;9687;50.836;12.060;2023-01-30T15:39:01;5.60;94.60
19110;DHT22;9687;50.836;12.060;2023-01-30T15:41:29;5.60;94.10
19110;DHT22;9687;50.836;12.060;2023-01-30T15:44:02;5.60;94.00
19110;DHT22;9687;50.836;12.060;2023-01-30T15:46:35;5.60;94.30
19110;DHT22;9687;50.836;12.060;2023-01-30T15:51:48;5.60;94.10
19110;DHT22;9687;50.836;12.060;2023-01-30T15:54:17;5.60;93.80
19110;DHT22;9687;50.836;12.060;2023-01-30T15:56:45;5.60;93.70
19110;DHT22;9687;50.836;12.060;2023-01-30T15:59:19;5.60;94.00
19110;DHT22;9687;50.836;12.060;2023-01-30T16:01:57;5.60;93.80
19110;DHT22;9687;50.836;12.060;2023-01-30T16:04:25;5.60;93.70
19110;DHT22;9687;50.836;12.060;2023-01-30T16:06:55;5.60;94.00
19110;DHT22;9687;50.836;12.060;2023-01-30T16:09:23;6.00;94.20
19110;DHT22;9687;50.836;12.060;2023-01-30T16:11:51;5.60;93.50
19110;DHT22;9687;50.836;12.060;2023-01-30T16:14:20;5.60;93.50
19110;DHT22;9687;50.836;12.060;2023-01-30T16:16:49;5.60;93.90
19110;DHT22;9687;50.836;12.060;2023-01-30T16:19:19;5.70;93.70
19110;DHT22;9687;50.836;12.060;2023-01-30T16:21:47;5.60;93.60
19110;DHT22;9687;50.836;12.060;2023-01-30T16:24:15;5.70;93.50
19110;DHT22;9687;50.836;12.060;2023-01-30T16:26:44;5.70;93.50
19110;DHT22;9687;50.836;12.060;2023-01-30T16:29:12;5.70;93.80
19110;DHT22;9687;50.836;12.060;2023-01-30T16:31:41;5.70;93.70
19110;DHT22;9687;50.836;12.060;2023-01-30T16:37:02;5.70;93.40
19110;DHT22;9687;50.836;12.060;2023-01-30T16:39:30;5.70;93.40
19110;DHT22;9687;50.836;12.060;2023-01-30T16:41:58;5.70;93.40